sensor_id;sensor_type;location;lat;lon;timestamp;P1;durP1;ratioP1;P2;durP2;ratioP2
57055;SDS011;42945;51.718;5.324;2023-05-02T00:01:27;37.60;;;15.45;;
57055;SDS011;42945;51.718;5.324;2023-05-02T00:03:52;32.13;;;14.57;;
57055;SDS011;42945;51.718;5.324;2023-05-02T00:06:17;41.28;;;17.20;;
57055;SDS011;42945;51.718;5.324;2023-05-02T00:08:43;32.75;;;14.73;;
57055;SDS011;42945;51.718;5.324;2023-05-02T00:11:08;38.10;;;17.23;;
57055;SDS011;42945;51.718;5.324;2023-05-02T00:13:33;31.75;;;12.45;;
57055;SDS011;42945;51.718;5.324;2023-05-02T00:15:59;33.08;;;15.15;;
57055;SDS011;42945;51.718;5.324;2023-05-02T00:18:24;30.67;;;13.10;;
57055;SDS011;42945;51.718;5.324;2023-05-02T00:20:49;32.42;;;13.63;;
57055;SDS011;42945;51.718;5.324;2023-05-02T00:23:15;34.75;;;15.48;;
57055;SDS011;42945;51.718;5.324;2023-05-02T00:25:44;32.20;;;15.15;;
57055;SDS011;42945;51.718;5.324;2023-05-02T00:28:10;38.55;;;16.38;;
57055;SDS011;42945;51.718;5.324;2023-05-02T00:30:35;33.25;;;14.07;;
57055;SDS011;42945;51.718;5.324;2023-05-02T00:33:01;37.58;;;16.42;;
57055;SDS011;42945;51.718;5.324;2023-05-02T00:35:26;30.25;;;14.68;;
57055;SDS011;42945;51.718;5.324;2023-05-02T00:37:51;29.63;;;14.75;;
57055;SDS011;42945;51.718;5.324;2023-05-02T00:40:17;28.05;;;13.50;;
57055;SDS011;42945;51.718;5.324;2023-05-02T00:42:42;28.95;;;11.90;;
57055;SDS011;42945;51.718;5.324;2023-05-02T00:45:07;30.13;;;13.80;;
57055;SDS011;42945;51.718;5.324;2023-05-02T00:47:33;26.08;;;12.95;;
57055;SDS011;42945;51.718;5.324;2023-05-02T00:49:59;29.05;;;12.85;;
57055;SDS011;42945;51.718;5.324;2023-05-02T00:52:25;25.60;;;12.68;;
57055;SDS011;42945;51.718;5.324;2023-05-02T00:54:50;26.13;;;13.27;;
57055;SDS011;42945;51.718;5.324;2023-05-02T00:57:16;26.10;;;12.23;;
57055;SDS011;42945;51.718;5.324;2023-05-02T00:59:41;31.30;;;14.25;;
57055;SDS011;42945;51.718;5.324;2023-05-02T01:05:09;25.42;;;11.63;;
57055;SDS011;42945;51.718;5.324;2023-05-02T01:07:52;27.77;;;13.15;;
57055;SDS011;42945;51.718;5.324;2023-05-02T01:15:40;22.75;;;11.48;;
57055;SDS011;42945;51.718;5.324;2023-05-02T01:18:08;27.98;;;12.10;;
57055;SDS011;42945;51.718;5.324;2023-05-02T01:20:35;24.63;;;12.05;;
57055;SDS011;42945;51.718;5.324;2023-05-02T01:23:06;26.27;;;11.75;;
57055;SDS011;42945;51.718;5.324;2023-05-02T01:31:11;26.13;;;12.80;;
57055;SDS011;42945;51.718;5.324;2023-05-02T01:33:37;25.70;;;12.18;;
57055;SDS011;42945;51.718;5.324;2023-05-02T01:36:04;29.92;;;13.50;;
57055;SDS011;42945;51.718;5.324;2023-05-02T01:38:31;26.35;;;12.80;;
57055;SDS011;42945;51.718;5.324;2023-05-02T01:40:58;30.92;;;12.30;;
57055;SDS011;42945;51.718;5.324;2023-05-02T01:43:29;27.98;;;13.00;;
57055;SDS011;42945;51.718;5.324;2023-05-02T01:45:57;25.00;;;12.90;;
57055;SDS011;42945;51.718;5.324;2023-05-02T01:48:24;29.77;;;13.10;;
57055;SDS011;42945;51.718;5.324;2023-05-02T01:50:52;29.27;;;14.73;;
57055;SDS011;42945;51.718;5.324;2023-05-02T01:53:20;22.92;;;11.25;;
57055;SDS011;42945;51.718;5.324;2023-05-02T01:55:46;24.65;;;11.48;;
57055;SDS011;42945;51.718;5.324;2023-05-02T01:58:13;31.75;;;15.57;;
57055;SDS011;42945;51.718;5.324;2023-05-02T02:00:40;37.08;;;15.15;;
57055;SDS011;42945;51.718;5.324;2023-05-02T02:03:09;30.48;;;15.23;;
57055;SDS011;42945;51.718;5.324;2023-05-02T02:05:35;31.13;;;15.95;;
57055;SDS011;42945;51.718;5.324;2023-05-02T02:08:03;28.52;;;14.85;;
57055;SDS011;42945;51.718;5.324;2023-05-02T02:10:29;29.23;;;14.70;;
57055;SDS011;42945;51.718;5.324;2023-05-02T02:13:03;31.45;;;15.27;;
57055;SDS011;42945;51.718;5.324;2023-05-02T02:15:36;25.67;;;14.88;;
57055;SDS011;42945;51.718;5.324;2023-05-02T02:20:37;28.02;;;14.57;;
57055;SDS011;42945;51.718;5.324;2023-05-02T02:23:07;31.38;;;15.30;;
57055;SDS011;42945;51.718;5.324;2023-05-02T02:25:33;29.13;;;14.85;;
57055;SDS011;42945;51.718;5.324;2023-05-02T02:28:00;29.13;;;14.32;;
57055;SDS011;42945;51.718;5.324;2023-05-02T02:30:25;33.72;;;15.93;;
57055;SDS011;42945;51.718;5.324;2023-05-02T02:32:50;36.42;;;16.63;;
57055;SDS011;42945;51.718;5.324;2023-05-02T02:35:16;33.38;;;16.85;;
57055;SDS011;42945;51.718;5.324;2023-05-02T02:37:46;32.75;;;15.85;;
57055;SDS011;42945;51.718;5.324;2023-05-02T02:40:27;36.05;;;16.00;;
57055;SDS011;42945;51.718;5.324;2023-05-02T02:45:46;26.23;;;15.18;;
57055;SDS011;42945;51.718;5.324;2023-05-02T02:48:24;29.48;;;13.95;;
57055;SDS011;42945;51.718;5.324;2023-05-02T02:51:13;30.25;;;14.38;;
57055;SDS011;42945;51.718;5.324;2023-05-02T02:56:41;23.73;;;12.82;;
57055;SDS011;42945;51.718;5.324;2023-05-02T03:02:07;16.98;;;6.70;;
57055;SDS011;42945;51.718;5.324;2023-05-02T03:07:01;12.38;;;5.70;;
57055;SDS011;42945;51.718;5.324;2023-05-02T03:09:26;17.20;;;5.90;;
57055;SDS011;42945;51.718;5.324;2023-05-02T03:11:54;19.30;;;5.97;;
57055;SDS011;42945;51.718;5.324;2023-05-02T03:14:21;13.18;;;4.70;;
57055;SDS011;42945;51.718;5.324;2023-05-02T03:16:46;15.00;;;4.78;;
57055;SDS011;42945;51.718;5.324;2023-05-02T03:19:13;12.27;;;3.28;;
57055;SDS011;42945;51.718;5.324;2023-05-02T03:21:38;16.27;;;4.97;;
57055;SDS011;42945;51.718;5.324;2023-05-02T03:24:03;12.45;;;4.75;;
57055;SDS011;42945;51.718;5.324;2023-05-02T03:26:29;20.25;;;5.20;;
57055;SDS011;42945;51.718;5.324;2023-05-02T03:28:54;17.98;;;4.95;;
57055;SDS011;42945;51.718;5.324;2023-05-02T03:31:20;25.27;;;4.68;;
57055;SDS011;42945;51.718;5.324;2023-05-02T03:33:47;14.27;;;3.72;;
57055;SDS011;42945;51.718;5.324;2023-05-02T03:36:12;10.98;;;3.88;;
57055;SDS011;42945;51.718;5.324;2023-05-02T03:38:38;16.48;;;4.28;;
57055;SDS011;42945;51.718;5.324;2023-05-02T03:41:04;10.75;;;3.00;;
57055;SDS011;42945;51.718;5.324;2023-05-02T03:43:29;9.15;;;1.80;;
57055;SDS011;42945;51.718;5.324;2023-05-02T03:45:55;10.57;;;2.00;;
57055;SDS011;42945;51.718;5.324;2023-05-02T03:48:20;8.65;;;1.70;;
57055;SDS011;42945;51.718;5.324;2023-05-02T03:50:46;10.05;;;1.80;;
57055;SDS011;42945;51.718;5.324;2023-05-02T03:53:13;6.30;;;1.13;;
57055;SDS011;42945;51.718;5.324;2023-05-02T03:55:40;6.20;;;1.48;;
57055;SDS011;42945;51.718;5.324;2023-05-02T03:58:09;9.45;;;1.50;;
57055;SDS011;42945;51.718;5.324;2023-05-02T04:00:36;12.23;;;1.58;;
57055;SDS011;42945;51.718;5.324;2023-05-02T04:03:02;4.20;;;0.93;;
57055;SDS011;42945;51.718;5.324;2023-05-02T04:05:28;5.32;;;1.10;;
57055;SDS011;42945;51.718;5.324;2023-05-02T04:07:54;7.05;;;1.20;;
57055;SDS011;42945;51.718;5.324;2023-05-02T04:10:20;8.88;;;1.42;;
57055;SDS011;42945;51.718;5.324;2023-05-02T04:12:46;6.15;;;1.25;;
57055;SDS011;42945;51.718;5.324;2023-05-02T04:15:11;6.68;;;1.30;;
57055;SDS011;42945;51.718;5.324;2023-05-02T04:17:37;7.03;;;1.50;;
57055;SDS011;42945;51.718;5.324;2023-05-02T04:20:03;7.25;;;1.48;;
57055;SDS011;42945;51.718;5.324;2023-05-02T04:22:29;5.63;;;1.30;;
57055;SDS011;42945;51.718;5.324;2023-05-02T04:24:55;5.30;;;1.58;;
57055;SDS011;42945;51.718;5.324;2023-05-02T04:27:20;7.82;;;1.40;;
57055;SDS011;42945;51.718;5.324;2023-05-02T04:29:49;8.60;;;1.60;;
57055;SDS011;42945;51.718;5.324;2023-05-02T04:32:15;12.15;;;1.67;;
57055;SDS011;42945;51.718;5.324;2023-05-02T04:34:40;4.90;;;1.40;;
57055;SDS011;42945;51.718;5.324;2023-05-02T04:37:06;5.78;;;1.58;;
57055;SDS011;42945;51.718;5.324;2023-05-02T04:39:31;5.07;;;1.77;;
57055;SDS011;42945;51.718;5.324;2023-05-02T04:41:57;6.55;;;1.65;;
57055;SDS011;42945;51.718;5.324;2023-05-02T04:44:22;6.78;;;1.75;;
57055;SDS011;42945;51.718;5.324;2023-05-02T04:46:47;7.80;;;1.90;;
57055;SDS011;42945;51.718;5.324;2023-05-02T04:49:13;5.75;;;1.60;;
57055;SDS011;42945;51.718;5.324;2023-05-02T04:51:38;8.55;;;1.52;;
57055;SDS011;42945;51.718;5.324;2023-05-02T04:54:03;8.18;;;1.50;;
57055;SDS011;42945;51.718;5.324;2023-05-02T04:56:28;7.78;;;1.13;;
57055;SDS011;42945;51.718;5.324;2023-05-02T04:58:54;6.57;;;1.30;;
57055;SDS011;42945;51.718;5.324;2023-05-02T05:01:19;2.55;;;1.13;;
57055;SDS011;42945;51.718;5.324;2023-05-02T05:03:44;5.47;;;1.45;;
57055;SDS011;42945;51.718;5.324;2023-05-02T05:06:10;6.97;;;1.38;;
57055;SDS011;42945;51.718;5.324;2023-05-02T05:08:36;3.85;;;1.15;;
57055;SDS011;42945;51.718;5.324;2023-05-02T05:11:01;6.85;;;1.40;;
57055;SDS011;42945;51.718;5.324;2023-05-02T05:13:28;8.75;;;1.48;;
57055;SDS011;42945;51.718;5.324;2023-05-02T05:15:54;5.00;;;1.30;;
57055;SDS011;42945;51.718;5.324;2023-05-02T05:18:20;5.88;;;1.00;;
57055;SDS011;42945;51.718;5.324;2023-05-02T05:20:45;7.45;;;1.50;;
57055;SDS011;42945;51.718;5.324;2023-05-02T05:23:11;5.47;;;1.42;;
57055;SDS011;42945;51.718;5.324;2023-05-02T05:25:36;6.68;;;1.40;;
57055;SDS011;42945;51.718;5.324;2023-05-02T05:28:02;7.32;;;1.20;;
57055;SDS011;42945;51.718;5.324;2023-05-02T05:30:27;4.13;;;0.90;;
57055;SDS011;42945;51.718;5.324;2023-05-02T05:32:55;5.70;;;1.20;;
57055;SDS011;42945;51.718;5.324;2023-05-02T05:35:20;5.63;;;1.52;;
57055;SDS011;42945;51.718;5.324;2023-05-02T05:37:46;10.93;;;1.10;;
57055;SDS011;42945;51.718;5.324;2023-05-02T05:40:11;3.53;;;0.93;;
57055;SDS011;42945;51.718;5.324;2023-05-02T05:42:36;10.85;;;1.45;;
57055;SDS011;42945;51.718;5.324;2023-05-02T05:45:02;8.05;;;1.73;;
57055;SDS011;42945;51.718;5.324;2023-05-02T05:47:27;7.53;;;1.70;;
57055;SDS011;42945;51.718;5.324;2023-05-02T05:49:53;8.73;;;1.30;;
57055;SDS011;42945;51.718;5.324;2023-05-02T05:52:19;7.07;;;1.08;;
57055;SDS011;42945;51.718;5.324;2023-05-02T05:54:45;6.93;;;1.38;;
57055;SDS011;42945;51.718;5.324;2023-05-02T05:57:10;15.63;;;4.80;;
57055;SDS011;42945;51.718;5.324;2023-05-02T05:59:36;7.72;;;1.70;;
57055;SDS011;42945;51.718;5.324;2023-05-02T06:02:01;6.40;;;1.85;;
57055;SDS011;42945;51.718;5.324;2023-05-02T06:04:27;7.25;;;1.58;;
57055;SDS011;42945;51.718;5.324;2023-05-02T06:06:54;7.25;;;1.55;;
57055;SDS011;42945;51.718;5.324;2023-05-02T06:09:19;11.70;;;2.10;;
57055;SDS011;42945;51.718;5.324;2023-05-02T06:11:45;7.40;;;1.55;;
57055;SDS011;42945;51.718;5.324;2023-05-02T06:14:10;7.53;;;1.70;;
57055;SDS011;42945;51.718;5.324;2023-05-02T06:16:35;14.60;;;1.90;;
57055;SDS011;42945;51.718;5.324;2023-05-02T06:19:01;8.48;;;1.80;;
57055;SDS011;42945;51.718;5.324;2023-05-02T06:21:26;13.82;;;2.13;;
57055;SDS011;42945;51.718;5.324;2023-05-02T06:23:51;9.30;;;2.00;;
57055;SDS011;42945;51.718;5.324;2023-05-02T06:26:17;9.35;;;2.42;;
57055;SDS011;42945;51.718;5.324;2023-05-02T06:28:42;9.93;;;2.00;;
57055;SDS011;42945;51.718;5.324;2023-05-02T06:31:08;10.20;;;2.00;;
57055;SDS011;42945;51.718;5.324;2023-05-02T06:33:33;16.50;;;2.92;;
57055;SDS011;42945;51.718;5.324;2023-05-02T06:35:59;8.35;;;1.85;;
57055;SDS011;42945;51.718;5.324;2023-05-02T06:38:25;10.57;;;2.30;;
57055;SDS011;42945;51.718;5.324;2023-05-02T06:40:50;13.88;;;2.30;;
57055;SDS011;42945;51.718;5.324;2023-05-02T06:43:16;12.40;;;2.50;;
57055;SDS011;42945;51.718;5.324;2023-05-02T06:45:42;14.07;;;2.63;;
57055;SDS011;42945;51.718;5.324;2023-05-02T06:48:08;21.15;;;3.63;;
57055;SDS011;42945;51.718;5.324;2023-05-02T06:50:34;17.00;;;3.33;;
57055;SDS011;42945;51.718;5.324;2023-05-02T06:53:00;16.25;;;2.83;;
57055;SDS011;42945;51.718;5.324;2023-05-02T06:55:25;13.05;;;2.35;;
57055;SDS011;42945;51.718;5.324;2023-05-02T06:57:51;10.80;;;2.72;;
57055;SDS011;42945;51.718;5.324;2023-05-02T07:00:17;12.45;;;2.25;;
57055;SDS011;42945;51.718;5.324;2023-05-02T07:02:47;13.27;;;2.90;;
57055;SDS011;42945;51.718;5.324;2023-05-02T07:05:13;14.50;;;2.72;;
57055;SDS011;42945;51.718;5.324;2023-05-02T07:07:43;16.60;;;3.00;;
57055;SDS011;42945;51.718;5.324;2023-05-02T07:10:09;16.60;;;2.85;;
57055;SDS011;42945;51.718;5.324;2023-05-02T07:12:35;16.92;;;3.15;;
57055;SDS011;42945;51.718;5.324;2023-05-02T07:15:00;10.68;;;2.22;;
57055;SDS011;42945;51.718;5.324;2023-05-02T07:17:26;13.95;;;2.80;;
57055;SDS011;42945;51.718;5.324;2023-05-02T07:19:52;16.80;;;3.00;;
57055;SDS011;42945;51.718;5.324;2023-05-02T07:22:18;15.55;;;2.90;;
57055;SDS011;42945;51.718;5.324;2023-05-02T07:24:43;15.30;;;2.42;;
57055;SDS011;42945;51.718;5.324;2023-05-02T07:27:09;13.32;;;3.22;;
57055;SDS011;42945;51.718;5.324;2023-05-02T07:29:35;10.80;;;2.40;;
57055;SDS011;42945;51.718;5.324;2023-05-02T07:32:00;15.55;;;2.80;;
57055;SDS011;42945;51.718;5.324;2023-05-02T07:34:26;11.02;;;2.40;;
57055;SDS011;42945;51.718;5.324;2023-05-02T07:36:52;13.10;;;2.20;;
57055;SDS011;42945;51.718;5.324;2023-05-02T07:39:17;9.55;;;2.30;;
57055;SDS011;42945;51.718;5.324;2023-05-02T07:41:43;10.90;;;1.83;;
57055;SDS011;42945;51.718;5.324;2023-05-02T07:44:08;11.98;;;2.15;;
57055;SDS011;42945;51.718;5.324;2023-05-02T07:46:33;14.80;;;2.95;;
57055;SDS011;42945;51.718;5.324;2023-05-02T07:48:59;7.50;;;1.83;;
57055;SDS011;42945;51.718;5.324;2023-05-02T07:51:24;12.57;;;2.60;;
57055;SDS011;42945;51.718;5.324;2023-05-02T07:53:50;8.55;;;1.65;;
57055;SDS011;42945;51.718;5.324;2023-05-02T07:56:22;16.30;;;2.95;;
57055;SDS011;42945;51.718;5.324;2023-05-02T07:58:48;15.55;;;2.50;;
57055;SDS011;42945;51.718;5.324;2023-05-02T08:01:15;6.60;;;1.70;;
57055;SDS011;42945;51.718;5.324;2023-05-02T08:03:42;11.32;;;1.70;;
57055;SDS011;42945;51.718;5.324;2023-05-02T08:06:07;11.27;;;2.30;;
57055;SDS011;42945;51.718;5.324;2023-05-02T08:08:33;12.85;;;2.03;;
57055;SDS011;42945;51.718;5.324;2023-05-02T08:10:59;8.98;;;1.95;;
57055;SDS011;42945;51.718;5.324;2023-05-02T08:13:24;10.65;;;2.00;;
57055;SDS011;42945;51.718;5.324;2023-05-02T08:15:51;10.00;;;2.15;;
57055;SDS011;42945;51.718;5.324;2023-05-02T08:18:16;10.68;;;1.75;;
57055;SDS011;42945;51.718;5.324;2023-05-02T08:20:42;11.98;;;1.90;;
57055;SDS011;42945;51.718;5.324;2023-05-02T08:23:07;3.95;;;1.05;;
57055;SDS011;42945;51.718;5.324;2023-05-02T08:25:32;7.30;;;1.63;;
57055;SDS011;42945;51.718;5.324;2023-05-02T08:27:57;8.32;;;1.70;;
57055;SDS011;42945;51.718;5.324;2023-05-02T08:30:23;10.13;;;1.70;;
57055;SDS011;42945;51.718;5.324;2023-05-02T08:32:48;5.85;;;1.38;;
57055;SDS011;42945;51.718;5.324;2023-05-02T08:35:13;8.07;;;1.60;;
57055;SDS011;42945;51.718;5.324;2023-05-02T08:37:39;5.18;;;1.40;;
57055;SDS011;42945;51.718;5.324;2023-05-02T08:40:04;9.95;;;1.38;;
57055;SDS011;42945;51.718;5.324;2023-05-02T08:42:31;6.30;;;1.33;;
57055;SDS011;42945;51.718;5.324;2023-05-02T08:44:59;5.72;;;1.38;;
57055;SDS011;42945;51.718;5.324;2023-05-02T08:47:25;9.32;;;1.58;;
57055;SDS011;42945;51.718;5.324;2023-05-02T08:49:52;10.30;;;1.55;;
57055;SDS011;42945;51.718;5.324;2023-05-02T08:52:19;5.30;;;1.70;;
57055;SDS011;42945;51.718;5.324;2023-05-02T08:54:45;10.88;;;1.80;;
57055;SDS011;42945;51.718;5.324;2023-05-02T08:57:11;6.53;;;1.95;;
57055;SDS011;42945;51.718;5.324;2023-05-02T08:59:36;5.97;;;1.60;;
57055;SDS011;42945;51.718;5.324;2023-05-02T09:02:09;11.05;;;1.88;;
57055;SDS011;42945;51.718;5.324;2023-05-02T09:04:40;7.78;;;2.15;;
57055;SDS011;42945;51.718;5.324;2023-05-02T09:07:07;11.68;;;2.05;;
57055;SDS011;42945;51.718;5.324;2023-05-02T09:09:32;9.82;;;2.30;;
57055;SDS011;42945;51.718;5.324;2023-05-02T09:11:58;8.40;;;1.25;;
57055;SDS011;42945;51.718;5.324;2023-05-02T09:14:23;9.07;;;1.63;;
57055;SDS011;42945;51.718;5.324;2023-05-02T09:16:49;9.52;;;2.42;;
57055;SDS011;42945;51.718;5.324;2023-05-02T09:19:22;14.68;;;2.42;;
57055;SDS011;42945;51.718;5.324;2023-05-02T09:21:51;11.32;;;2.47;;
57055;SDS011;42945;51.718;5.324;2023-05-02T09:24:23;12.68;;;2.53;;
57055;SDS011;42945;51.718;5.324;2023-05-02T09:27:22;10.70;;;1.65;;
57055;SDS011;42945;51.718;5.324;2023-05-02T09:29:40;9.40;;;2.20;;
57055;SDS011;42945;51.718;5.324;2023-05-02T09:32:09;6.90;;;1.45;;
57055;SDS011;42945;51.718;5.324;2023-05-02T09:34:35;8.50;;;1.40;;
57055;SDS011;42945;51.718;5.324;2023-05-02T09:37:02;5.28;;;1.40;;
57055;SDS011;42945;51.718;5.324;2023-05-02T09:39:29;8.63;;;1.55;;
57055;SDS011;42945;51.718;5.324;2023-05-02T09:41:55;8.40;;;1.67;;
57055;SDS011;42945;51.718;5.324;2023-05-02T09:44:24;8.45;;;2.15;;
57055;SDS011;42945;51.718;5.324;2023-05-02T09:46:55;6.93;;;1.40;;
57055;SDS011;42945;51.718;5.324;2023-05-02T09:49:37;10.88;;;1.98;;
57055;SDS011;42945;51.718;5.324;2023-05-02T09:52:09;12.32;;;1.67;;
57055;SDS011;42945;51.718;5.324;2023-05-02T09:54:35;10.50;;;2.13;;
57055;SDS011;42945;51.718;5.324;2023-05-02T09:57:01;6.63;;;1.58;;
57055;SDS011;42945;51.718;5.324;2023-05-02T09:59:27;8.60;;;2.10;;
57055;SDS011;42945;51.718;5.324;2023-05-02T10:01:56;8.20;;;2.47;;
57055;SDS011;42945;51.718;5.324;2023-05-02T10:04:23;5.93;;;1.75;;
57055;SDS011;42945;51.718;5.324;2023-05-02T10:06:50;13.55;;;2.13;;
57055;SDS011;42945;51.718;5.324;2023-05-02T10:09:16;7.85;;;1.90;;
57055;SDS011;42945;51.718;5.324;2023-05-02T10:11:44;6.45;;;1.58;;
57055;SDS011;42945;51.718;5.324;2023-05-02T10:14:10;8.18;;;1.60;;
57055;SDS011;42945;51.718;5.324;2023-05-02T10:17:26;7.57;;;1.95;;
57055;SDS011;42945;51.718;5.324;2023-05-02T10:22:23;10.40;;;1.95;;
57055;SDS011;42945;51.718;5.324;2023-05-02T10:24:49;10.30;;;1.90;;
57055;SDS011;42945;51.718;5.324;2023-05-02T10:27:17;6.65;;;1.88;;
57055;SDS011;42945;51.718;5.324;2023-05-02T10:29:42;6.28;;;1.60;;
57055;SDS011;42945;51.718;5.324;2023-05-02T10:32:08;8.73;;;1.88;;
57055;SDS011;42945;51.718;5.324;2023-05-02T10:34:35;5.18;;;1.60;;
57055;SDS011;42945;51.718;5.324;2023-05-02T10:37:01;8.57;;;1.73;;
57055;SDS011;42945;51.718;5.324;2023-05-02T10:39:27;8.57;;;2.00;;
57055;SDS011;42945;51.718;5.324;2023-05-02T10:41:54;5.75;;;1.80;;
57055;SDS011;42945;51.718;5.324;2023-05-02T10:44:38;8.77;;;1.95;;
57055;SDS011;42945;51.718;5.324;2023-05-02T10:47:20;10.50;;;2.00;;
57055;SDS011;42945;51.718;5.324;2023-05-02T10:49:56;8.40;;;2.00;;
57055;SDS011;42945;51.718;5.324;2023-05-02T10:52:39;11.60;;;2.15;;
57055;SDS011;42945;51.718;5.324;2023-05-02T10:55:15;8.00;;;2.08;;
57055;SDS011;42945;51.718;5.324;2023-05-02T11:01:01;9.35;;;2.47;;
57055;SDS011;42945;51.718;5.324;2023-05-02T11:06:25;8.35;;;1.73;;
57055;SDS011;42945;51.718;5.324;2023-05-02T11:08:52;5.63;;;1.67;;
57055;SDS011;42945;51.718;5.324;2023-05-02T11:11:45;6.35;;;1.67;;
57055;SDS011;42945;51.718;5.324;2023-05-02T11:19:26;4.50;;;1.23;;
57055;SDS011;42945;51.718;5.324;2023-05-02T11:21:52;7.95;;;1.40;;
57055;SDS011;42945;51.718;5.324;2023-05-02T11:24:41;4.40;;;1.60;;
57055;SDS011;42945;51.718;5.324;2023-05-02T11:30:04;4.95;;;1.25;;
57055;SDS011;42945;51.718;5.324;2023-05-02T11:35:14;3.50;;;1.40;;
57055;SDS011;42945;51.718;5.324;2023-05-02T11:37:41;5.15;;;1.35;;
57055;SDS011;42945;51.718;5.324;2023-05-02T11:40:10;6.10;;;1.40;;
57055;SDS011;42945;51.718;5.324;2023-05-02T11:42:36;5.07;;;1.30;;
57055;SDS011;42945;51.718;5.324;2023-05-02T11:45:01;7.03;;;1.80;;
57055;SDS011;42945;51.718;5.324;2023-05-02T11:47:27;5.88;;;1.70;;
57055;SDS011;42945;51.718;5.324;2023-05-02T11:49:54;8.43;;;2.40;;
57055;SDS011;42945;51.718;5.324;2023-05-02T11:52:21;4.75;;;1.52;;
57055;SDS011;42945;51.718;5.324;2023-05-02T11:54:47;7.95;;;1.70;;
57055;SDS011;42945;51.718;5.324;2023-05-02T11:57:13;5.13;;;1.58;;
57055;SDS011;42945;51.718;5.324;2023-05-02T11:59:49;8.25;;;1.52;;
57055;SDS011;42945;51.718;5.324;2023-05-02T12:02:15;7.35;;;1.77;;
57055;SDS011;42945;51.718;5.324;2023-05-02T12:04:41;5.68;;;1.80;;
57055;SDS011;42945;51.718;5.324;2023-05-02T12:07:09;5.45;;;1.90;;
57055;SDS011;42945;51.718;5.324;2023-05-02T12:09:35;5.07;;;1.55;;
57055;SDS011;42945;51.718;5.324;2023-05-02T12:12:00;8.90;;;1.90;;
57055;SDS011;42945;51.718;5.324;2023-05-02T12:14:29;4.45;;;1.52;;
57055;SDS011;42945;51.718;5.324;2023-05-02T12:16:57;5.38;;;1.70;;
57055;SDS011;42945;51.718;5.324;2023-05-02T12:19:23;6.28;;;1.90;;
57055;SDS011;42945;51.718;5.324;2023-05-02T12:21:50;5.57;;;1.70;;
57055;SDS011;42945;51.718;5.324;2023-05-02T12:24:15;8.65;;;2.30;;
57055;SDS011;42945;51.718;5.324;2023-05-02T12:26:41;2.97;;;1.42;;
57055;SDS011;42945;51.718;5.324;2023-05-02T12:29:06;6.35;;;1.67;;
57055;SDS011;42945;51.718;5.324;2023-05-02T12:31:32;5.72;;;2.03;;
57055;SDS011;42945;51.718;5.324;2023-05-02T12:33:58;7.05;;;1.70;;
57055;SDS011;42945;51.718;5.324;2023-05-02T12:36:25;8.85;;;2.08;;
57055;SDS011;42945;51.718;5.324;2023-05-02T12:38:53;6.28;;;1.70;;
57055;SDS011;42945;51.718;5.324;2023-05-02T12:41:35;7.22;;;2.00;;
57055;SDS011;42945;51.718;5.324;2023-05-02T12:44:02;10.38;;;2.10;;
57055;SDS011;42945;51.718;5.324;2023-05-02T12:46:29;7.72;;;1.98;;
57055;SDS011;42945;51.718;5.324;2023-05-02T12:49:05;5.75;;;1.90;;
57055;SDS011;42945;51.718;5.324;2023-05-02T12:51:31;5.55;;;1.98;;
57055;SDS011;42945;51.718;5.324;2023-05-02T12:53:58;9.38;;;2.58;;
57055;SDS011;42945;51.718;5.324;2023-05-02T12:56:23;7.80;;;2.10;;
57055;SDS011;42945;51.718;5.324;2023-05-02T12:58:51;6.15;;;1.83;;
57055;SDS011;42945;51.718;5.324;2023-05-02T13:01:16;9.23;;;1.98;;
57055;SDS011;42945;51.718;5.324;2023-05-02T13:03:42;9.32;;;1.70;;
57055;SDS011;42945;51.718;5.324;2023-05-02T13:06:08;10.65;;;2.60;;
57055;SDS011;42945;51.718;5.324;2023-05-02T13:08:34;9.05;;;2.20;;
57055;SDS011;42945;51.718;5.324;2023-05-02T13:11:00;7.20;;;1.83;;
57055;SDS011;42945;51.718;5.324;2023-05-02T13:13:27;12.95;;;2.20;;
57055;SDS011;42945;51.718;5.324;2023-05-02T13:15:53;9.82;;;2.33;;
57055;SDS011;42945;51.718;5.324;2023-05-02T13:18:18;7.35;;;2.05;;
57055;SDS011;42945;51.718;5.324;2023-05-02T13:20:43;7.28;;;2.13;;
57055;SDS011;42945;51.718;5.324;2023-05-02T13:23:09;6.85;;;2.17;;
57055;SDS011;42945;51.718;5.324;2023-05-02T13:25:34;6.75;;;2.55;;
57055;SDS011;42945;51.718;5.324;2023-05-02T13:27:59;9.07;;;2.40;;
57055;SDS011;42945;51.718;5.324;2023-05-02T13:30:25;8.15;;;2.80;;
57055;SDS011;42945;51.718;5.324;2023-05-02T13:32:50;6.70;;;2.30;;
57055;SDS011;42945;51.718;5.324;2023-05-02T13:35:15;8.13;;;2.63;;
57055;SDS011;42945;51.718;5.324;2023-05-02T13:37:41;12.38;;;2.65;;
57055;SDS011;42945;51.718;5.324;2023-05-02T13:40:07;10.48;;;2.80;;
57055;SDS011;42945;51.718;5.324;2023-05-02T13:42:32;9.15;;;2.25;;
57055;SDS011;42945;51.718;5.324;2023-05-02T13:44:58;4.75;;;2.33;;
57055;SDS011;42945;51.718;5.324;2023-05-02T13:47:23;7.70;;;2.53;;
57055;SDS011;42945;51.718;5.324;2023-05-02T13:49:49;10.50;;;2.50;;
57055;SDS011;42945;51.718;5.324;2023-05-02T13:52:14;9.18;;;2.20;;
57055;SDS011;42945;51.718;5.324;2023-05-02T13:54:40;5.97;;;2.70;;
57055;SDS011;42945;51.718;5.324;2023-05-02T13:57:05;5.32;;;1.98;;
57055;SDS011;42945;51.718;5.324;2023-05-02T13:59:30;5.20;;;2.08;;
57055;SDS011;42945;51.718;5.324;2023-05-02T14:01:56;8.98;;;2.72;;
57055;SDS011;42945;51.718;5.324;2023-05-02T14:04:21;7.63;;;2.65;;
57055;SDS011;42945;51.718;5.324;2023-05-02T14:06:46;15.18;;;2.72;;
57055;SDS011;42945;51.718;5.324;2023-05-02T14:09:12;6.50;;;2.35;;
57055;SDS011;42945;51.718;5.324;2023-05-02T14:11:37;11.20;;;2.80;;
57055;SDS011;42945;51.718;5.324;2023-05-02T14:14:03;6.30;;;2.22;;
57055;SDS011;42945;51.718;5.324;2023-05-02T14:16:28;8.13;;;2.50;;
57055;SDS011;42945;51.718;5.324;2023-05-02T14:18:54;8.13;;;2.67;;
57055;SDS011;42945;51.718;5.324;2023-05-02T14:21:19;7.00;;;2.72;;
57055;SDS011;42945;51.718;5.324;2023-05-02T14:23:44;9.05;;;3.10;;
57055;SDS011;42945;51.718;5.324;2023-05-02T14:26:10;8.60;;;2.95;;
57055;SDS011;42945;51.718;5.324;2023-05-02T14:28:36;7.45;;;2.50;;
57055;SDS011;42945;51.718;5.324;2023-05-02T14:31:02;8.68;;;2.72;;
57055;SDS011;42945;51.718;5.324;2023-05-02T14:33:27;6.57;;;2.65;;
57055;SDS011;42945;51.718;5.324;2023-05-02T14:35:52;6.43;;;2.10;;
57055;SDS011;42945;51.718;5.324;2023-05-02T14:38:18;11.82;;;4.10;;
57055;SDS011;42945;51.718;5.324;2023-05-02T14:40:43;6.93;;;2.50;;
57055;SDS011;42945;51.718;5.324;2023-05-02T14:43:09;10.63;;;3.03;;
57055;SDS011;42945;51.718;5.324;2023-05-02T14:45:35;10.15;;;2.58;;
57055;SDS011;42945;51.718;5.324;2023-05-02T14:48:01;4.38;;;2.60;;
57055;SDS011;42945;51.718;5.324;2023-05-02T14:50:26;7.15;;;2.55;;
57055;SDS011;42945;51.718;5.324;2023-05-02T14:52:52;12.05;;;2.90;;
57055;SDS011;42945;51.718;5.324;2023-05-02T14:55:17;7.20;;;2.85;;
57055;SDS011;42945;51.718;5.324;2023-05-02T14:57:42;10.23;;;3.38;;
57055;SDS011;42945;51.718;5.324;2023-05-02T15:00:08;11.40;;;3.10;;
57055;SDS011;42945;51.718;5.324;2023-05-02T15:02:34;10.73;;;2.60;;
57055;SDS011;42945;51.718;5.324;2023-05-02T15:05:00;12.30;;;2.50;;
57055;SDS011;42945;51.718;5.324;2023-05-02T15:07:26;7.03;;;2.30;;
57055;SDS011;42945;51.718;5.324;2023-05-02T15:09:52;7.82;;;2.70;;
57055;SDS011;42945;51.718;5.324;2023-05-02T15:12:18;6.93;;;2.42;;
57055;SDS011;42945;51.718;5.324;2023-05-02T15:14:43;12.55;;;2.95;;
57055;SDS011;42945;51.718;5.324;2023-05-02T15:17:08;9.73;;;2.67;;
57055;SDS011;42945;51.718;5.324;2023-05-02T15:19:33;6.93;;;2.55;;
57055;SDS011;42945;51.718;5.324;2023-05-02T15:22:00;9.05;;;2.55;;
57055;SDS011;42945;51.718;5.324;2023-05-02T15:24:25;6.63;;;2.80;;